createdAt,value
2018-03-17T00:00:35.234Z,101896.81
2018-03-17T00:03:38.535Z,101895.51
2018-03-17T00:06:42.642Z,101894.10
2018-03-17T00:09:45.952Z,101893.84
2018-03-17T00:12:50.030Z,101901.47
2018-03-17T00:15:53.354Z,101900.96
2018-03-17T00:18:56.655Z,101892.08
2018-03-17T00:21:59.975Z,101893.29
2018-03-17T00:25:03.285Z,101906.56
2018-03-17T00:28:06.603Z,101901.13
2018-03-17T00:31:09.903Z,101905.31
2018-03-17T00:34:13.226Z,101908.92
2018-03-17T00:37:16.541Z,101904.22
2018-03-17T00:40:20.624Z,101911.85
2018-03-17T00:43:23.936Z,101908.13
2018-03-17T00:46:27.260Z,101908.39
2018-03-17T00:49:30.563Z,101904.47
2018-03-17T00:52:33.895Z,101911.98
2018-03-17T00:55:37.190Z,101899.73
2018-03-17T00:58:40.507Z,101906.82
2018-03-17T01:01:43.851Z,101902.00
2018-03-17T01:04:47.154Z,101901.86
2018-03-17T01:07:50.476Z,101889.36
2018-03-17T01:10:53.783Z,101902.60
2018-03-17T01:13:57.104Z,101884.71
2018-03-17T01:17:00.417Z,101880.38
2018-03-17T01:20:04.478Z,101882.02
2018-03-17T01:23:07.790Z,101880.69
2018-03-17T01:26:11.086Z,101879.98
2018-03-17T01:29:14.401Z,101888.75
2018-03-17T01:32:17.702Z,101894.47
2018-03-17T01:35:21.798Z,101887.22
2018-03-17T01:38:25.098Z,101883.11
2018-03-17T01:41:28.415Z,101886.58
2018-03-17T01:44:32.495Z,101879.06
2018-03-17T01:47:35.806Z,101878.88
2018-03-17T01:50:39.110Z,101889.67
2018-03-17T01:53:42.430Z,101873.78
2018-03-17T01:56:46.490Z,101881.11
2018-03-17T01:59:49.823Z,101867.53
2018-03-17T02:02:53.120Z,101875.94
2018-03-17T02:05:56.439Z,101856.81
2018-03-17T02:08:59.756Z,101866.32
2018-03-17T02:12:03.060Z,101855.75
2018-03-17T02:15:06.376Z,101852.47
2018-03-17T02:18:09.678Z,101851.45
2018-03-17T02:21:12.998Z,101864.87
2018-03-17T02:24:16.303Z,101883.22
2018-03-17T02:27:19.639Z,101877.66
2018-03-17T02:30:22.944Z,101868.55
2018-03-17T02:33:26.263Z,101875.18
2018-03-17T02:36:29.605Z,101876.78
2018-03-17T02:39:32.913Z,101850.61
2018-03-17T02:42:36.236Z,101868.80
2018-03-17T02:45:39.547Z,101869.50
2018-03-17T02:48:42.869Z,101852.84
2018-03-17T02:51:46.166Z,101865.75
2018-03-17T02:54:50.246Z,101861.53
2018-03-17T02:57:53.546Z,101852.34
2018-03-17T03:00:56.866Z,101853.48
2018-03-17T03:04:00.186Z,101856.92
2018-03-17T03:07:04.271Z,101855.70
2018-03-17T03:10:07.596Z,101842.88
2018-03-17T03:13:11.695Z,101848.12
2018-03-17T03:16:14.994Z,101847.22
2018-03-17T03:19:19.074Z,101855.31
2018-03-17T03:22:22.391Z,101836.50
2018-03-17T03:25:25.722Z,101845.38
2018-03-17T03:28:29.023Z,101872.02
2018-03-17T03:31:32.363Z,101857.97
2018-03-17T03:34:35.658Z,101848.03
2018-03-17T03:37:38.986Z,101846.43
2018-03-17T03:40:43.055Z,101852.00
2018-03-17T03:43:46.386Z,101857.75
2018-03-17T03:46:49.683Z,101869.30
2018-03-17T03:49:52.998Z,101872.92
2018-03-17T03:52:57.116Z,101855.66
2018-03-17T03:56:00.399Z,101866.31
2018-03-17T03:59:04.486Z,101861.11
2018-03-17T04:02:07.807Z,101840.67
2018-03-17T04:05:11.128Z,101850.53
2018-03-17T04:08:14.455Z,101842.87
2018-03-17T04:11:19.421Z,101832.58
2018-03-17T04:14:22.746Z,101854.59
2018-03-17T04:17:26.830Z,101844.38
2018-03-17T04:20:30.177Z,101863.61
2018-03-17T04:23:33.486Z,101861.28
2018-03-17T04:26:36.819Z,101858.38
2018-03-17T04:29:40.130Z,101858.03
2018-03-17T04:32:43.451Z,101859.01
2018-03-17T04:35:47.535Z,101848.48
2018-03-17T04:38:50.851Z,101860.95
2018-03-17T04:41:59.358Z,101864.72
2018-03-17T04:45:10.496Z,101842.38
2018-03-17T04:48:14.671Z,101853.17
2018-03-17T04:51:18.099Z,101860.94
2018-03-17T04:54:21.932Z,101863.59
2018-03-17T05:00:34.883Z,101889.84
2018-03-17T05:03:38.218Z,101865.25
2018-03-17T05:06:41.532Z,101859.06
2018-03-17T05:09:44.872Z,101866.48
2018-03-17T05:12:48.220Z,101876.48
2018-03-17T05:15:51.549Z,101878.47
2018-03-17T05:18:54.927Z,101874.80
2018-03-17T05:21:58.282Z,101883.33
2018-03-17T05:25:02.412Z,101885.85
2018-03-17T05:28:06.516Z,101895.61
2018-03-17T05:31:10.637Z,101877.02
2018-03-17T05:34:15.198Z,101887.59
2018-03-17T05:37:18.548Z,101908.55
2018-03-17T05:40:21.874Z,101894.06
2018-03-17T05:43:37.948Z,101909.19
2018-03-17T05:46:56.186Z,101913.69
2018-03-17T05:50:03.574Z,101905.16
2018-03-17T05:53:10.700Z,101913.42
2018-03-17T05:56:14.504Z,101903.07
2018-03-17T05:59:21.448Z,101902.81
2018-03-17T06:02:26.548Z,101900.80
2018-03-17T06:05:32.788Z,101916.46
2018-03-17T06:08:36.316Z,101916.78
2018-03-17T06:11:41.352Z,101917.30
2018-03-17T06:14:48.023Z,101909.41
2018-03-17T06:17:58.966Z,101916.84
2018-03-17T06:21:05.283Z,101920.02
2018-03-17T06:24:13.711Z,101922.69
2018-03-17T06:27:21.283Z,101914.70
2018-03-17T06:30:26.395Z,101915.48
2018-03-17T06:33:30.825Z,101922.28
2018-03-17T06:36:38.206Z,101916.06
2018-03-17T06:39:44.095Z,101914.34
2018-03-17T06:42:49.287Z,101924.41
2018-03-17T06:45:55.249Z,101931.42
2018-03-17T06:49:00.203Z,101916.98
2018-03-17T06:52:17.509Z,101928.61
2018-03-17T06:55:21.901Z,101907.35
2018-03-17T06:58:25.234Z,101935.07
2018-03-17T07:01:29.303Z,101926.34
2018-03-17T07:04:32.618Z,101932.69
2018-03-17T07:07:35.910Z,101928.22
2018-03-17T07:10:39.235Z,101929.87
2018-03-17T07:13:43.335Z,101923.48
2018-03-17T07:16:47.407Z,101916.16
2018-03-17T07:19:50.759Z,101926.45
2018-03-17T07:22:54.039Z,101928.37
2018-03-17T07:25:57.358Z,101913.06
2018-03-17T07:29:00.662Z,101923.01
2018-03-17T07:32:04.022Z,101924.09
2018-03-17T07:35:07.302Z,101928.16
2018-03-17T07:38:10.627Z,101926.00
2018-03-17T07:41:14.722Z,101929.95
2018-03-17T07:44:18.042Z,101930.30
2018-03-17T07:47:22.135Z,101936.75
2018-03-17T07:50:25.435Z,101940.80
2018-03-17T07:53:28.759Z,101927.29
2018-03-17T07:56:32.828Z,101924.33
2018-03-17T07:59:36.163Z,101957.65
2018-03-17T08:02:40.235Z,101936.98
2018-03-17T08:05:43.558Z,101949.22
2018-03-17T08:08:46.859Z,101947.77
2018-03-17T08:11:50.178Z,101949.17
2018-03-17T08:14:53.510Z,101926.38
2018-03-17T08:17:56.811Z,101936.61
2018-03-17T08:21:00.138Z,101940.01
2018-03-17T08:24:03.447Z,101961.14
2018-03-17T08:27:07.539Z,101939.47
2018-03-17T08:30:10.847Z,101949.41
2018-03-17T08:33:14.174Z,101961.36
2018-03-17T08:36:17.480Z,101953.05
2018-03-17T08:39:20.798Z,101966.02
2018-03-17T08:42:24.111Z,101946.75
2018-03-17T08:45:27.446Z,101946.27
2018-03-17T08:48:31.514Z,101950.17
2018-03-17T08:51:34.830Z,101943.27
2018-03-17T08:54:38.135Z,101933.89
2018-03-17T08:57:42.260Z,101935.24
2018-03-17T09:00:46.336Z,101930.52
2018-03-17T09:03:49.664Z,101931.31
2018-03-17T09:06:53.011Z,101944.09
2018-03-17T09:09:56.315Z,101928.70
2018-03-17T09:12:59.634Z,101945.42
2018-03-17T09:16:02.946Z,101927.06
2018-03-17T09:19:06.278Z,101936.59
2018-03-17T09:22:09.583Z,101933.06
2018-03-17T09:25:12.918Z,101920.28
2018-03-17T09:28:16.235Z,101927.06
2018-03-17T09:31:19.564Z,101949.55
2018-03-17T09:34:22.894Z,101944.47
2018-03-17T09:37:26.202Z,101955.14
2018-03-17T09:40:29.538Z,101957.91
2018-03-17T09:43:33.607Z,101944.76
2018-03-17T09:46:36.930Z,101929.73
2018-03-17T09:49:40.257Z,101948.82
2018-03-17T09:52:43.570Z,101957.38
2018-03-17T09:55:46.882Z,101934.30
2018-03-17T09:58:50.206Z,101923.95
2018-03-17T10:01:53.502Z,101937.72
2018-03-17T10:04:56.830Z,101950.69
2018-03-17T10:08:00.895Z,101936.98
2018-03-17T10:11:04.230Z,101947.91
2018-03-17T10:14:08.298Z,101938.80
2018-03-17T10:17:11.647Z,101918.55
2018-03-17T10:20:15.719Z,101940.06
2018-03-17T10:23:19.038Z,101940.81
2018-03-17T10:26:22.347Z,101931.84
2018-03-17T10:29:26.474Z,101936.36
2018-03-17T10:32:29.746Z,101935.87
2018-03-17T10:35:33.076Z,101929.92
2018-03-17T10:38:36.379Z,101921.16
2018-03-17T10:41:39.697Z,101934.17
2018-03-17T10:44:43.018Z,101945.65
2018-03-17T10:47:46.363Z,101928.58
2018-03-17T10:50:49.655Z,101934.36
2018-03-17T10:53:53.727Z,101942.58
2018-03-17T10:56:57.068Z,101939.00
2018-03-17T11:00:00.374Z,101934.14
2018-03-17T11:03:03.695Z,101917.25
2018-03-17T11:06:07.068Z,101911.11
2018-03-17T11:09:11.102Z,101926.49
2018-03-17T11:12:14.419Z,101934.08
2018-03-17T11:15:17.718Z,101918.70
2018-03-17T11:18:21.050Z,101933.28
2018-03-17T11:21:25.139Z,101939.88
2018-03-17T11:24:28.454Z,101913.69
2018-03-17T11:27:32.527Z,101902.95
2018-03-17T11:30:35.850Z,101933.96
2018-03-17T11:33:39.159Z,101924.53
2018-03-17T11:36:44.078Z,101925.39
2018-03-17T11:39:47.379Z,101902.95
2018-03-17T11:42:50.703Z,101928.41
2018-03-17T11:45:54.011Z,101926.30
2018-03-17T11:48:57.331Z,101918.37
2018-03-17T11:52:00.645Z,101924.13
2018-03-17T11:55:03.976Z,101918.23
2018-03-17T11:58:07.286Z,101918.78
2018-03-17T12:01:11.636Z,101916.89
2018-03-17T12:18:30.591Z,101910.75
2018-03-17T12:21:33.918Z,101893.64
2018-03-17T12:28:17.749Z,101894.25
2018-03-17T13:01:11.512Z,101865.78
2018-03-17T13:04:34.267Z,101876.02
2018-03-17T13:15:13.628Z,101876.98
2018-03-17T13:22:04.053Z,101867.57
2018-03-17T13:25:07.432Z,101875.03
2018-03-17T13:28:26.556Z,101861.34
2018-03-17T13:31:30.193Z,101865.41
2018-03-17T13:34:34.865Z,101866.77
2018-03-17T13:41:28.169Z,101873.19
2018-03-17T13:48:18.046Z,101879.19
2018-03-17T14:43:32.206Z,101866.44
2018-03-17T14:46:37.552Z,101870.65
2018-03-17T14:50:22.658Z,101867.55
2018-03-17T14:56:42.036Z,101843.95
2018-03-17T14:59:52.701Z,101880.86
2018-03-17T15:02:58.363Z,101856.27
2018-03-17T15:09:37.274Z,101896.95
2018-03-17T15:15:59.859Z,101872.26
2018-03-17T15:19:09.890Z,101864.91
2018-03-17T15:22:19.649Z,101867.45
2018-03-17T15:25:27.001Z,101871.50
2018-03-17T15:28:35.493Z,101848.92
2018-03-17T15:31:59.313Z,101864.89
2018-03-17T15:35:09.606Z,101864.73
2018-03-17T15:38:14.643Z,101861.00
2018-03-17T15:41:33.933Z,101880.21
2018-03-17T15:44:58.108Z,101876.53
2018-03-17T15:48:12.672Z,101882.16
2018-03-17T15:51:28.285Z,101890.39
2018-03-17T15:54:40.400Z,101874.14
2018-03-17T15:57:47.590Z,101895.37
2018-03-17T16:01:00.614Z,101883.58
2018-03-17T16:04:11.117Z,101892.08
2018-03-17T16:07:18.197Z,101877.30
2018-03-17T16:10:31.017Z,101892.37
2018-03-17T16:13:39.089Z,101878.91
2018-03-17T16:19:59.898Z,101893.80
2018-03-17T16:23:13.488Z,101934.44
2018-03-17T16:26:19.723Z,101920.76
2018-03-17T16:29:28.442Z,101914.94
2018-03-17T16:32:32.601Z,101947.05
2018-03-17T16:35:40.452Z,101926.92
2018-03-17T16:42:01.169Z,101920.05
2018-03-17T16:45:10.300Z,101933.98
2018-03-17T16:48:22.150Z,101918.16
2018-03-17T16:51:41.224Z,101931.78
2018-03-17T16:54:50.314Z,101942.30
2018-03-17T17:04:51.669Z,101947.96
2018-03-17T17:08:00.470Z,101955.59
2018-03-17T17:11:11.112Z,101962.50
2018-03-17T17:14:20.552Z,101948.09
2018-03-17T17:17:27.236Z,101988.72
2018-03-17T17:23:58.636Z,101959.64
2018-03-17T17:27:08.629Z,101977.83
2018-03-17T17:30:14.724Z,101960.86
2018-03-17T17:33:25.148Z,101962.50
2018-03-17T17:36:29.978Z,101962.19
2018-03-17T17:42:54.544Z,101965.23
2018-03-17T17:46:02.314Z,101966.93
2018-03-17T17:49:11.223Z,101991.27
2018-03-17T17:55:31.722Z,101968.64
2018-03-17T17:58:38.246Z,101991.12
2018-03-17T18:01:50.994Z,101986.58
2018-03-17T18:04:55.154Z,101993.24
2018-03-17T18:11:38.979Z,101987.36
2018-03-17T18:26:02.925Z,102004.22
2018-03-17T18:29:06.234Z,101998.50
2018-03-17T18:32:09.659Z,102003.23
2018-03-17T18:35:13.006Z,101999.95
2018-03-17T18:38:16.334Z,102014.17
2018-03-17T18:41:19.776Z,102014.72
2018-03-17T18:44:23.908Z,102017.50
2018-03-17T18:47:27.988Z,102020.84
2018-03-17T18:50:31.306Z,102034.16
2018-03-17T18:53:35.376Z,102024.05
2018-03-17T18:56:38.747Z,102004.18
2018-03-17T18:59:42.778Z,102012.13
2018-03-17T19:06:14.481Z,102018.75
2018-03-17T19:09:20.180Z,102030.05
2018-03-17T19:12:32.491Z,102044.42
2018-03-17T19:15:35.990Z,102018.99
2018-03-17T19:18:44.470Z,102024.55
2018-03-17T19:21:48.667Z,102063.90
2018-03-17T19:24:55.821Z,102053.75
2018-03-17T19:27:59.162Z,102044.10
2018-03-17T19:31:02.508Z,102040.77
2018-03-17T19:34:05.836Z,102018.33
2018-03-17T19:40:19.557Z,102025.19
2018-03-17T19:43:23.965Z,102045.52
2018-03-17T19:46:30.222Z,102048.42
2018-03-17T19:49:37.568Z,102054.55
2018-03-17T19:52:48.677Z,102046.31
2018-03-17T19:55:55.998Z,102039.53
2018-03-17T19:59:04.805Z,102059.28
2018-03-17T20:02:12.191Z,102039.57
2018-03-17T20:05:18.301Z,102059.75
2018-03-17T20:08:25.702Z,102018.12
2018-03-17T20:11:32.779Z,102049.52
2018-03-17T20:14:39.868Z,102036.44
2018-03-17T20:17:45.002Z,102036.70
2018-03-17T20:21:05.535Z,102033.96
2018-03-17T20:24:10.745Z,102043.29
2018-03-17T20:27:15.684Z,102051.33
2018-03-17T20:30:22.336Z,102057.76
2018-03-17T20:33:30.032Z,102033.30
2018-03-17T20:36:35.144Z,102071.74
2018-03-17T20:39:42.362Z,102061.16
2018-03-17T20:42:46.553Z,102062.38
2018-03-17T20:45:51.368Z,102045.64
2018-03-17T20:48:57.445Z,102063.75
2018-03-17T20:52:03.218Z,102047.76
2018-03-17T20:55:10.961Z,102062.97
2018-03-17T20:58:19.063Z,102060.30
2018-03-17T21:05:02.664Z,102060.50
2018-03-17T21:08:08.300Z,102067.48
2018-03-17T21:18:24.008Z,102053.91
2018-03-17T21:21:34.930Z,102056.46
2018-03-17T21:27:59.986Z,102060.77
2018-03-17T21:31:05.168Z,102053.95
2018-03-17T21:34:20.637Z,102070.50
2018-03-17T21:37:37.570Z,102060.62
2018-03-17T21:40:43.991Z,102041.69
2018-03-17T21:47:09.409Z,102055.09
2018-03-17T21:50:26.028Z,102055.17
2018-03-17T21:53:32.703Z,102064.45
2018-03-17T21:56:42.755Z,102057.01
2018-03-17T21:59:50.782Z,102063.36
2018-03-17T22:02:55.878Z,102052.22
2018-03-17T22:06:05.108Z,102068.11
2018-03-17T22:09:11.690Z,102054.66
2018-03-17T22:12:21.376Z,102052.19
2018-03-17T22:15:27.875Z,102053.87
2018-03-17T22:18:36.798Z,102047.99
2018-03-17T22:21:41.349Z,102053.84
2018-03-17T22:24:47.275Z,102054.77
2018-03-17T22:27:50.935Z,102063.28
2018-03-17T22:30:57.568Z,102053.72
2018-03-17T22:34:03.460Z,102063.00
2018-03-17T22:37:10.135Z,102051.52
2018-03-17T22:40:21.435Z,102048.70
2018-03-17T22:43:29.166Z,102045.80
2018-03-17T22:46:40.310Z,102041.56
2018-03-17T22:49:51.499Z,102039.99
2018-03-17T22:53:05.076Z,102040.59
2018-03-17T22:56:13.463Z,102036.78
2018-03-17T22:59:20.250Z,102056.97
2018-03-17T23:02:28.436Z,102051.99
2018-03-17T23:05:34.370Z,102069.28
2018-03-17T23:08:39.107Z,102055.28
2018-03-17T23:11:44.152Z,102052.74
2018-03-17T23:14:48.413Z,102051.37
2018-03-17T23:17:54.709Z,102059.67
2018-03-17T23:21:04.000Z,102064.58
2018-03-17T23:24:14.373Z,102050.31
2018-03-17T23:27:23.674Z,102052.27
2018-03-17T23:30:29.110Z,102054.07
2018-03-17T23:33:38.028Z,102039.30
2018-03-17T23:36:43.120Z,102055.95
2018-03-17T23:39:53.781Z,102049.48
2018-03-17T23:43:03.312Z,102045.72
2018-03-17T23:46:14.198Z,102049.20
2018-03-17T23:49:18.452Z,102043.20
2018-03-17T23:52:24.410Z,102053.60
2018-03-17T23:55:29.693Z,102057.67
2018-03-17T23:58:34.740Z,102064.22
